Time;durP1;ratioP1;P1;durP2;ratioP2;P2;SDS_P1;SDS_P2;PMS_P1;PMS_P2;Temp;Humidity;BMP_temperature;BMP_pressure;BME280_temperature;BME280_humidity;BME280_pressure;Samples;Min_cycle;Max_cycle;Signal;HPM_P1;HPM_P2
2023/04/11 00:02:24;;;;;;;;;;;;;;;9.48;100.00;100927.88;5054393;28;19924;-46
2023/04/11 00:04:53;;;;;;;;;;;;;;;9.38;100.00;100926.66;5054986;28;19916;-46
2023/04/11 00:07:19;;;;;;;;;;;;;;;9.29;100.00;100927.25;5060909;28;19960;-46
2023/04/11 00:09:44;;;;;;;;;;;;;;;9.34;100.00;100932.50;5059004;28;19952;-46
2023/04/11 00:12:09;;;;;;;;;;;;;;;9.28;100.00;100919.47;5060121;28;20014;-47
2023/04/11 00:14:34;;;;;;;;;;;;;;;9.17;100.00;100926.81;5055359;28;20370;-48
2023/04/11 00:17:00;;;;;;;;;;;;;;;9.20;100.00;100921.78;5062424;28;19921;-46
2023/04/11 00:19:27;;;;;;;;;;;;;;;9.18;100.00;100923.44;5061341;28;19918;-46
2023/04/11 00:21:56;;;;;;;;;;;;;;;9.17;100.00;100924.25;5038564;28;20383;-46
2023/04/11 00:24:21;;;;;;;;;;;;;;;9.17;100.00;100931.09;5056010;28;19924;-47
2023/04/11 00:26:46;;;;;;;;;;;;;;;9.04;100.00;100917.84;5057330;28;19940;-48
2023/04/11 00:29:12;;;;;;;;;;;;;;;8.93;100.00;100920.84;5054048;28;19916;-50
2023/04/11 00:31:37;;;;;;;;;;;;;;;8.85;100.00;100920.53;5057678;28;20011;-47
2023/04/11 00:34:02;;;;;;;;;;;;;;;8.77;100.00;100935.66;5060558;28;20420;-47
2023/04/11 00:36:27;;;;;;;;;;;;;;;8.74;100.00;100930.44;5053996;28;19993;-48
2023/04/11 00:38:53;;;;;;;;;;;;;;;8.72;100.00;100931.16;5054768;28;19917;-48
2023/04/11 00:41:19;;;;;;;;;;;;;;;8.66;100.00;100933.50;5056170;28;19924;-47
2023/04/11 00:43:44;;;;;;;;;;;;;;;8.64;100.00;100942.84;5056269;28;19919;-47
2023/04/11 00:46:09;;;;;;;;;;;;;;;8.68;100.00;100942.16;5053136;28;19917;-47
2023/04/11 00:48:35;;;;;;;;;;;;;;;8.64;100.00;100935.16;5059705;28;19924;-47
2023/04/11 00:51:00;;;;;;;;;;;;;;;8.58;100.00;100944.38;5056124;28;19920;-48
2023/04/11 00:53:31;;;;;;;;;;;;;;;8.70;100.00;100943.06;5056492;28;19948;-50
2023/04/11 00:55:56;;;;;;;;;;;;;;;8.62;100.00;100940.22;5053582;28;19970;-48
2023/04/11 00:58:22;;;;;;;;;;;;;;;8.63;100.00;100933.41;5060780;28;19920;-47
2023/04/11 01:00:48;;;;;;;;;;;;;;;8.59;100.00;100933.28;5052246;28;19928;-56
2023/04/11 01:03:14;;;;;;;;;;;;;;;8.62;100.00;100937.66;5056653;28;20424;-56
2023/04/11 01:05:39;;;;;;;;;;;;;;;8.62;100.00;100941.94;5054994;28;19912;-56
2023/04/11 01:08:06;;;;;;;;;;;;;;;8.64;100.00;100930.03;5051113;28;19916;-56
2023/04/11 01:10:32;;;;;;;;;;;;;;;8.65;100.00;100936.91;5051886;28;19923;-55
2023/04/11 01:13:01;;;;;;;;;;;;;;;8.66;100.00;100930.94;5055383;28;19924;-55
2023/04/11 01:15:26;;;;;;;;;;;;;;;8.68;100.00;100931.91;5037646;28;19920;-56
2023/04/11 01:17:54;;;;;;;;;;;;;;;8.64;100.00;100937.72;5034688;28;19921;-56
2023/04/11 01:20:20;;;;;;;;;;;;;;;8.65;100.00;100937.75;5051797;28;19979;-54
2023/04/11 01:22:48;;;;;;;;;;;;;;;8.63;100.00;100938.53;5055968;28;20370;-57
2023/04/11 01:25:14;;;;;;;;;;;;;;;8.65;100.00;100939.47;5053652;28;19995;-55
2023/04/11 01:27:41;;;;;;;;;;;;;;;8.61;100.00;100935.91;5052458;28;19921;-55
2023/04/11 01:30:07;;;;;;;;;;;;;;;8.58;100.00;100930.69;5054416;28;19928;-55
2023/04/11 01:32:32;;;;;;;;;;;;;;;8.50;100.00;100929.53;5054667;28;19918;-55
2023/04/11 01:34:58;;;;;;;;;;;;;;;8.42;100.00;100926.66;5050733;28;19924;-55
2023/04/11 01:37:24;;;;;;;;;;;;;;;8.36;100.00;100928.13;5055172;28;20011;-55
2023/04/11 01:39:49;;;;;;;;;;;;;;;8.41;100.00;100935.16;5054650;28;20611;-55
2023/04/11 01:42:14;;;;;;;;;;;;;;;8.39;100.00;100936.81;5051319;28;20596;-55
2023/04/11 01:44:40;;;;;;;;;;;;;;;8.32;100.00;100945.91;5053156;28;19912;-54
2023/04/11 01:47:05;;;;;;;;;;;;;;;8.28;100.00;100950.84;5051643;28;19934;-56
2023/04/11 01:49:31;;;;;;;;;;;;;;;8.20;100.00;100954.81;5052647;28;20017;-56
2023/04/11 01:51:56;;;;;;;;;;;;;;;8.18;100.00;100956.44;5053381;28;19917;-55
2023/04/11 01:54:21;;;;;;;;;;;;;;;8.13;100.00;100960.50;5053550;28;20013;-55
2023/04/11 01:56:47;;;;;;;;;;;;;;;8.11;100.00;100959.56;5051514;28;20383;-57
2023/04/11 01:59:12;;;;;;;;;;;;;;;8.07;100.00;100964.59;5051368;28;19920;-56
2023/04/11 02:01:38;;;;;;;;;;;;;;;8.10;100.00;100965.50;5053179;28;19974;-55
2023/04/11 02:04:03;;;;;;;;;;;;;;;8.13;100.00;100971.63;5055292;28;19916;-55
2023/04/11 02:06:28;;;;;;;;;;;;;;;8.14;100.00;100972.50;5054080;28;19924;-55
2023/04/11 02:08:53;;;;;;;;;;;;;;;8.13;100.00;100973.28;5033994;28;19931;-56
2023/04/11 02:11:19;;;;;;;;;;;;;;;8.11;100.00;100978.38;5053207;28;19999;-56
2023/04/11 02:13:45;;;;;;;;;;;;;;;8.20;100.00;100978.75;5053006;28;19982;-54
2023/04/11 02:16:13;;;;;;;;;;;;;;;8.14;100.00;100972.50;5059413;28;19943;-56
2023/04/11 02:18:40;;;;;;;;;;;;;;;8.13;100.00;100981.88;5051439;28;19913;-56
2023/04/11 02:21:05;;;;;;;;;;;;;;;8.09;100.00;100977.44;5055287;28;19916;-56
2023/04/11 02:23:30;;;;;;;;;;;;;;;8.27;100.00;100979.84;5051445;28;20517;-54
2023/04/11 02:25:55;;;;;;;;;;;;;;;8.14;100.00;100975.06;5059818;28;20314;-57
2023/04/11 02:28:21;;;;;;;;;;;;;;;8.14;100.00;100982.75;5051635;28;19928;-57
2023/04/11 02:30:47;;;;;;;;;;;;;;;8.15;100.00;100980.25;5052038;28;19920;-57
2023/04/11 02:33:12;;;;;;;;;;;;;;;8.14;100.00;100980.19;5060459;28;19927;-57
2023/04/11 02:35:38;;;;;;;;;;;;;;;8.15;100.00;100979.38;5056745;28;19912;-48
2023/04/11 02:38:03;;;;;;;;;;;;;;;8.06;100.00;100978.16;5059628;28;19912;-48
2023/04/11 02:40:28;;;;;;;;;;;;;;;8.17;100.00;100985.41;5051056;28;20065;-49
2023/04/11 02:42:53;;;;;;;;;;;;;;;8.06;100.00;100983.28;5058864;28;20588;-49
2023/04/11 02:45:19;;;;;;;;;;;;;;;8.07;100.00;100990.19;5060905;28;20290;-47
2023/04/11 02:47:44;;;;;;;;;;;;;;;8.00;100.00;100984.75;5049094;28;19917;-48
2023/04/11 02:50:10;;;;;;;;;;;;;;;7.95;100.00;100987.13;5061692;28;19948;-48
2023/04/11 02:52:38;;;;;;;;;;;;;;;7.89;100.00;100986.88;5059991;28;19924;-50
2023/04/11 02:55:03;;;;;;;;;;;;;;;7.90;100.00;100987.75;5058199;28;19999;-47
2023/04/11 02:57:28;;;;;;;;;;;;;;;7.81;100.00;100998.47;5057831;28;20011;-47
2023/04/11 02:59:54;;;;;;;;;;;;;;;7.76;100.00;100992.28;5053352;28;20367;-46
2023/04/11 03:02:19;;;;;;;;;;;;;;;7.80;100.00;100999.28;5052188;28;19920;-47
2023/04/11 03:04:45;;;;;;;;;;;;;;;7.74;100.00;100999.91;5049856;28;19927;-47
2023/04/11 03:07:11;;;;;;;;;;;;;;;7.73;100.00;101002.41;5049775;28;19970;-46
2023/04/11 03:09:36;;;;;;;;;;;;;;;7.69;100.00;101005.66;5052901;28;19916;-46
2023/04/11 03:12:01;;;;;;;;;;;;;;;7.65;100.00;101009.78;5050211;28;19919;-48
2023/04/11 03:14:27;;;;;;;;;;;;;;;7.71;100.00;101006.63;5057426;28;20387;-45
2023/04/11 03:16:52;;;;;;;;;;;;;;;7.81;100.00;100998.47;5025092;28;20307;-48
2023/04/11 03:19:17;;;;;;;;;;;;;;;7.75;100.00;101008.47;5036498;28;19916;-47
2023/04/11 03:21:42;;;;;;;;;;;;;;;7.76;100.00;101005.09;5033287;28;19971;-46
2023/04/11 03:24:08;;;;;;;;;;;;;;;7.76;100.00;101011.09;5030527;28;19913;-45
2023/04/11 03:26:33;;;;;;;;;;;;;;;7.74;100.00;101011.84;5031089;28;19921;-48
2023/04/11 03:28:58;;;;;;;;;;;;;;;7.77;100.00;101024.78;5037684;28;19913;-47
2023/04/11 03:31:23;;;;;;;;;;;;;;;7.79;100.00;101025.72;5038868;28;20019;-49
2023/04/11 03:33:49;;;;;;;;;;;;;;;7.82;100.00;101036.06;5034227;28;19955;-48
2023/04/11 03:36:14;;;;;;;;;;;;;;;7.90;100.00;101031.28;5043923;28;20016;-47
2023/04/11 03:38:39;;;;;;;;;;;;;;;7.93;100.00;101024.59;5040335;28;19916;-47
2023/04/11 03:41:04;;;;;;;;;;;;;;;7.92;100.00;101037.34;5033896;28;19982;-46
2023/04/11 03:43:30;;;;;;;;;;;;;;;7.96;100.00;101029.84;5035322;28;19917;-47
2023/04/11 03:45:55;;;;;;;;;;;;;;;7.95;99.91;101032.34;5031444;28;19925;-47
2023/04/11 03:48:20;;;;;;;;;;;;;;;7.92;99.76;101034.78;5034544;28;19932;-49
2023/04/11 03:50:46;;;;;;;;;;;;;;;7.93;99.23;101032.28;5031591;28;19921;-50
2023/04/11 03:53:11;;;;;;;;;;;;;;;7.91;99.17;101031.34;5033628;28;19924;-51
2023/04/11 03:55:36;;;;;;;;;;;;;;;7.90;99.36;101037.28;5037106;28;20134;-48
2023/04/11 03:58:02;;;;;;;;;;;;;;;7.94;99.11;101040.81;5031408;28;20347;-50
2023/04/11 04:00:27;;;;;;;;;;;;;;;7.92;98.87;101045.88;5031705;28;20291;-48
2023/04/11 04:02:52;;;;;;;;;;;;;;;7.97;98.28;101046.09;5030473;28;19912;-51
2023/04/11 04:05:18;;;;;;;;;;;;;;;7.95;98.26;101051.16;5033201;28;19921;-46
2023/04/11 04:07:43;;;;;;;;;;;;;;;7.97;98.64;101049.53;5036130;28;19916;-48
2023/04/11 04:10:08;;;;;;;;;;;;;;;7.90;98.87;101047.53;5031960;28;20000;-46
2023/04/11 04:12:33;;;;;;;;;;;;;;;7.94;98.68;101043.38;5029070;28;19955;-47
2023/04/11 04:14:59;;;;;;;;;;;;;;;7.86;98.57;101045.63;5034030;28;20015;-47
2023/04/11 04:17:24;;;;;;;;;;;;;;;7.82;99.15;101053.13;5050484;28;19998;-46
2023/04/11 04:19:50;;;;;;;;;;;;;;;7.83;98.36;101050.63;5048083;28;20286;-48
2023/04/11 04:22:16;;;;;;;;;;;;;;;7.76;98.91;101053.72;5055813;28;19925;-49
2023/04/11 04:24:44;;;;;;;;;;;;;;;7.71;99.05;101062.91;5051153;28;20259;-47
2023/04/11 04:27:12;;;;;;;;;;;;;;;7.67;98.88;101061.03;5051379;28;19924;-46
2023/04/11 04:29:45;;;;;;;;;;;;;;;7.68;98.77;101061.09;5057419;28;19916;-46
2023/04/11 04:32:10;;;;;;;;;;;;;;;7.59;98.16;101065.81;5051342;28;19919;-47
2023/04/11 04:34:39;;;;;;;;;;;;;;;7.57;98.45;101062.31;5051177;28;19912;-46
2023/04/11 04:37:05;;;;;;;;;;;;;;;7.53;98.09;101071.56;5053136;28;19927;-47
2023/04/11 04:39:32;;;;;;;;;;;;;;;7.50;98.22;101079.09;5053971;28;19916;-48
2023/04/11 04:42:00;;;;;;;;;;;;;;;7.52;97.79;101076.59;5050386;28;19924;-48
2023/04/11 04:44:26;;;;;;;;;;;;;;;7.45;98.27;101085.69;5054564;28;19967;-47
2023/04/11 04:46:52;;;;;;;;;;;;;;;7.44;97.95;101086.47;5053224;28;19956;-45
2023/04/11 04:49:17;;;;;;;;;;;;;;;7.38;98.41;101083.66;5053315;28;20018;-56
2023/04/11 04:51:42;;;;;;;;;;;;;;;7.38;97.90;101096.44;5055597;28;19928;-55
2023/04/11 04:54:07;;;;;;;;;;;;;;;7.39;98.11;101099.88;5055759;28;20416;-57
2023/04/11 04:56:33;;;;;;;;;;;;;;;7.33;98.09;101108.16;5051343;28;19927;-55
2023/04/11 04:58:58;;;;;;;;;;;;;;;7.27;98.41;101107.88;5052772;28;20007;-56
2023/04/11 05:01:25;;;;;;;;;;;;;;;7.26;98.64;101111.25;5049392;28;20032;-56
2023/04/11 05:03:59;;;;;;;;;;;;;;;7.35;98.35;101121.03;5054734;28;19916;-55
2023/04/11 05:06:28;;;;;;;;;;;;;;;7.30;98.38;101125.06;5056376;28;19965;-56
2023/04/11 05:08:55;;;;;;;;;;;;;;;7.22;98.90;101122.16;5054100;28;19916;-55
2023/04/11 05:11:20;;;;;;;;;;;;;;;7.24;99.07;101129.09;5057469;28;19982;-56
2023/04/11 05:13:46;;;;;;;;;;;;;;;7.22;98.79;101133.28;5053740;28;20841;-47
2023/04/11 05:16:11;;;;;;;;;;;;;;;7.21;98.63;101122.94;5061253;28;19962;-47
2023/04/11 05:18:36;;;;;;;;;;;;;;;7.18;98.92;101130.50;5056385;28;20004;-48
2023/04/11 05:21:01;;;;;;;;;;;;;;;7.24;98.50;101135.88;5059155;28;20404;-46
2023/04/11 05:23:27;;;;;;;;;;;;;;;7.23;98.57;101141.81;5054582;28;19943;-49
2023/04/11 05:25:52;;;;;;;;;;;;;;;7.21;98.63;101135.72;5051702;28;20355;-49
2023/04/11 05:28:17;;;;;;;;;;;;;;;7.19;98.63;101140.78;5056757;28;20400;-48
2023/04/11 05:30:42;;;;;;;;;;;;;;;7.26;98.39;101145.38;5054148;28;19959;-47
2023/04/11 05:33:08;;;;;;;;;;;;;;;7.33;98.21;101149.09;5050170;28;19928;-48
2023/04/11 05:35:33;;;;;;;;;;;;;;;7.53;97.85;101144.88;5056329;28;19977;-48
2023/04/11 05:37:58;;;;;;;;;;;;;;;7.76;96.59;101148.44;5056640;28;20363;-47
2023/04/11 05:40:23;;;;;;;;;;;;;;;7.92;96.11;101144.88;5055681;28;19928;-50
2023/04/11 05:42:49;;;;;;;;;;;;;;;8.13;95.78;101155.16;5059739;28;20434;-49
2023/04/11 05:45:14;;;;;;;;;;;;;;;8.23;94.75;101165.84;5054208;28;19916;-48
2023/04/11 05:47:40;;;;;;;;;;;;;;;8.25;94.28;101166.81;5057113;28;19919;-48
2023/04/11 05:50:06;;;;;;;;;;;;;;;8.24;95.17;101174.41;5039692;28;20607;-50
2023/04/11 05:52:31;;;;;;;;;;;;;;;8.32;95.15;101173.94;5050070;28;19924;-50
2023/04/11 05:54:56;;;;;;;;;;;;;;;8.38;94.47;101175.06;5058677;28;20282;-51
2023/04/11 05:57:22;;;;;;;;;;;;;;;8.40;94.25;101187.09;5054238;28;19965;-47
2023/04/11 05:59:48;;;;;;;;;;;;;;;8.32;95.46;101188.44;5049851;28;19917;-48
2023/04/11 06:02:14;;;;;;;;;;;;;;;8.24;95.52;101189.78;5052495;28;19946;-47
2023/04/11 06:04:39;;;;;;;;;;;;;;;8.25;95.37;101199.22;5044386;28;19917;-51
2023/04/11 06:07:06;;;;;;;;;;;;;;;8.09;95.56;101189.16;5053619;28;19916;-48
2023/04/11 06:09:31;;;;;;;;;;;;;;;8.03;95.80;101200.00;5060312;28;19939;-46
2023/04/11 06:11:56;;;;;;;;;;;;;;;8.00;96.11;101199.84;5054991;28;20297;-48
2023/04/11 06:14:22;;;;;;;;;;;;;;;7.88;96.58;101207.00;5057751;28;20047;-49
2023/04/11 06:16:47;;;;;;;;;;;;;;;7.87;96.87;101210.38;5043201;28;19931;-48
2023/04/11 06:19:12;;;;;;;;;;;;;;;7.90;97.05;101203.72;5054546;28;19920;-51
2023/04/11 06:21:38;;;;;;;;;;;;;;;7.89;97.06;101201.97;5051498;28;19991;-50
2023/04/11 06:24:04;;;;;;;;;;;;;;;7.94;97.22;101208.13;5055716;28;20287;-49
2023/04/11 06:26:30;;;;;;;;;;;;;;;7.94;96.87;101202.13;5059754;28;19917;-49
2023/04/11 06:28:55;;;;;;;;;;;;;;;7.96;96.26;101211.66;5056479;28;19931;-47
2023/04/11 06:31:20;;;;;;;;;;;;;;;7.91;96.64;101202.88;5056533;28;20372;-51
2023/04/11 06:33:45;;;;;;;;;;;;;;;8.02;97.02;101211.94;5052248;28;20426;-48
2023/04/11 06:36:11;;;;;;;;;;;;;;;8.25;95.56;101212.94;5053271;28;19923;-49
2023/04/11 06:38:36;;;;;;;;;;;;;;;8.43;95.19;101210.28;5050436;28;19925;-49
2023/04/11 06:41:02;;;;;;;;;;;;;;;8.68;93.38;101203.63;5050282;28;19920;-49
2023/04/11 06:43:27;;;;;;;;;;;;;;;8.97;94.84;101213.34;5058250;28;19963;-47
2023/04/11 06:45:52;;;;;;;;;;;;;;;9.03;91.60;101213.59;5054509;28;20371;-47
2023/04/11 06:48:19;;;;;;;;;;;;;;;9.17;92.67;101226.13;5056546;28;20296;-46
2023/04/11 06:50:46;;;;;;;;;;;;;;;9.24;89.48;101223.84;5052649;28;20374;-49
2023/04/11 06:53:12;;;;;;;;;;;;;;;9.27;88.98;101210.25;5051398;28;19982;-50
2023/04/11 06:55:37;;;;;;;;;;;;;;;9.36;89.30;101226.03;5053050;28;19916;-50
2023/04/11 06:58:02;;;;;;;;;;;;;;;9.37;89.56;101228.63;5051778;28;19951;-49
2023/04/11 07:00:27;;;;;;;;;;;;;;;9.50;88.44;101227.41;5055848;28;19948;-47
2023/04/11 07:02:52;;;;;;;;;;;;;;;9.66;89.04;101232.31;5058387;28;19925;-47
2023/04/11 07:05:18;;;;;;;;;;;;;;;9.78;87.71;101229.34;5049549;28;19982;-47
2023/04/11 07:07:43;;;;;;;;;;;;;;;9.89;86.91;101225.47;5048008;28;19921;-47
2023/04/11 07:10:08;;;;;;;;;;;;;;;10.13;88.19;101237.44;5054755;28;19920;-48
2023/04/11 07:12:34;;;;;;;;;;;;;;;10.24;84.07;101242.97;5053619;28;19919;-46
2023/04/11 07:14:59;;;;;;;;;;;;;;;10.10;85.67;101242.47;5056609;28;19927;-48
2023/04/11 07:17:24;;;;;;;;;;;;;;;10.08;84.11;101252.69;5054353;28;19928;-49
2023/04/11 07:19:50;;;;;;;;;;;;;;;9.95;81.56;101250.50;5053158;28;19912;-48
2023/04/11 07:22:15;;;;;;;;;;;;;;;9.93;83.38;101249.56;5053750;28;20038;-48
2023/04/11 07:24:42;;;;;;;;;;;;;;;10.07;84.31;101250.97;5051480;28;20379;-47
2023/04/11 07:27:07;;;;;;;;;;;;;;;10.22;81.04;101258.31;5049081;28;19948;-48
2023/04/11 07:29:32;;;;;;;;;;;;;;;10.13;82.76;101274.31;5054883;28;19951;-47
2023/04/11 07:31:58;;;;;;;;;;;;;;;10.22;81.65;101268.59;5056762;28;19924;-47
2023/04/11 07:34:23;;;;;;;;;;;;;;;10.04;80.45;101267.94;5051031;28;19924;-46
2023/04/11 07:36:48;;;;;;;;;;;;;;;9.92;81.89;101276.94;5055559;28;19975;-48
2023/04/11 07:39:14;;;;;;;;;;;;;;;9.85;82.63;101271.53;5049493;28;19924;-48
2023/04/11 07:41:40;;;;;;;;;;;;;;;10.01;81.48;101272.94;5052184;28;19920;-49
2023/04/11 07:44:08;;;;;;;;;;;;;;;10.24;78.77;101281.53;5049702;28;19970;-46
2023/04/11 07:46:33;;;;;;;;;;;;;;;10.01;82.44;101273.84;5054019;28;19965;-50
2023/04/11 07:48:59;;;;;;;;;;;;;;;10.13;80.48;101279.44;5061694;28;19925;-47
2023/04/11 07:51:25;;;;;;;;;;;;;;;10.10;81.28;101273.31;5056066;28;19912;-48
2023/04/11 07:53:51;;;;;;;;;;;;;;;10.12;80.26;101282.81;5054181;28;19916;-49
2023/04/11 07:56:16;;;;;;;;;;;;;;;10.21;78.96;101274.56;5049886;28;19917;-50
2023/04/11 07:58:41;;;;;;;;;;;;;;;10.27;79.66;101271.38;5040808;28;19924;-51
2023/04/11 08:01:17;;;;;;;;;;;;;;;10.33;78.15;101271.59;5052463;28;19986;-49
2023/04/11 08:03:43;;;;;;;;;;;;;;;10.29;79.02;101278.31;5051402;28;20138;-52
2023/04/11 08:06:08;;;;;;;;;;;;;;;10.46;78.45;101290.06;5053932;28;20550;-49
2023/04/11 08:08:33;;;;;;;;;;;;;;;10.50;76.72;101285.94;5050527;28;19929;-48
2023/04/11 08:10:59;;;;;;;;;;;;;;;10.34;78.05;101299.91;5051578;28;20322;-47
2023/04/11 08:13:24;;;;;;;;;;;;;;;10.32;78.64;101295.56;5048556;28;20387;-48
2023/04/11 08:15:50;;;;;;;;;;;;;;;10.36;77.59;101302.53;5051352;28;19983;-49
2023/04/11 08:18:15;;;;;;;;;;;;;;;10.36;76.54;101307.69;5062835;28;20321;-47
2023/04/11 08:20:40;;;;;;;;;;;;;;;10.35;76.79;101300.78;5057859;28;20655;-47
2023/04/11 08:23:07;;;;;;;;;;;;;;;10.24;75.69;101305.53;5055037;28;20278;-50
2023/04/11 08:25:32;;;;;;;;;;;;;;;10.23;75.83;101310.59;5051537;28;20011;-47
2023/04/11 08:27:58;;;;;;;;;;;;;;;10.21;76.99;101316.56;5054058;28;20042;-47
2023/04/11 08:30:25;;;;;;;;;;;;;;;10.29;73.85;101316.00;5055176;28;19951;-56
2023/04/11 08:32:50;;;;;;;;;;;;;;;10.26;75.27;101326.19;5053147;28;19935;-57
2023/04/11 08:35:15;;;;;;;;;;;;;;;10.29;75.93;101331.41;5051480;28;19917;-57
2023/04/11 08:37:43;;;;;;;;;;;;;;;10.36;74.96;101338.53;5051820;28;19956;-56
2023/04/11 08:40:08;;;;;;;;;;;;;;;10.40;74.11;101324.97;5054518;28;20196;-57
2023/04/11 08:42:34;;;;;;;;;;;;;;;10.38;74.22;101334.34;5054259;28;19927;-55
2023/04/11 08:45:03;;;;;;;;;;;;;;;10.40;74.83;101333.56;5054527;28;19917;-56
2023/04/11 08:47:28;;;;;;;;;;;;;;;10.50;74.53;101337.34;5054121;28;19921;-56
2023/04/11 08:49:55;;;;;;;;;;;;;;;10.60;73.75;101338.53;5054421;28;19920;-55
2023/04/11 08:52:20;;;;;;;;;;;;;;;10.55;72.17;101334.91;5057387;28;19913;-54
2023/04/11 08:54:46;;;;;;;;;;;;;;;10.68;72.78;101347.41;5052900;28;20374;-56
2023/04/11 08:57:30;;;;;;;;;;;;;;;10.57;71.22;101331.59;5052895;28;19999;-56
2023/04/11 08:59:56;;;;;;;;;;;;;;;10.59;73.11;101322.22;5056396;28;20587;-56
2023/04/11 09:02:21;;;;;;;;;;;;;;;10.67;72.78;101327.63;5056526;28;20011;-55
2023/04/11 09:04:47;;;;;;;;;;;;;;;10.77;72.53;101334.88;5056312;28;19999;-56
2023/04/11 09:07:14;;;;;;;;;;;;;;;10.96;69.27;101328.66;5053890;28;19928;-56
2023/04/11 09:09:39;;;;;;;;;;;;;;;11.10;69.41;101332.56;5051044;28;20398;-57
2023/04/11 09:12:05;;;;;;;;;;;;;;;11.20;68.89;101324.31;5054892;28;19950;-56
2023/04/11 09:14:30;;;;;;;;;;;;;;;11.46;66.67;101332.88;5037156;28;19916;-55
2023/04/11 09:17:00;;;;;;;;;;;;;;;11.52;64.71;101322.75;5055496;28;20082;-56
2023/04/11 09:19:26;;;;;;;;;;;;;;;11.61;66.01;101337.66;5051961;28;19919;-56
2023/04/11 09:21:52;;;;;;;;;;;;;;;11.62;65.50;101323.94;5054505;28;19920;-55
2023/04/11 09:24:18;;;;;;;;;;;;;;;11.75;60.55;101345.78;5050660;28;20398;-56
2023/04/11 09:26:43;;;;;;;;;;;;;;;11.66;63.33;101332.66;5054001;28;19920;-56
2023/04/11 09:29:08;;;;;;;;;;;;;;;11.56;60.89;101339.19;5052517;28;19920;-56
2023/04/11 09:31:43;;;;;;;;;;;;;;;11.54;62.55;101341.72;5053328;28;19931;-55
2023/04/11 09:34:10;;;;;;;;;;;;;;;11.65;61.70;101349.81;5051611;28;19939;-55
2023/04/11 09:36:35;;;;;;;;;;;;;;;11.65;63.16;101351.47;5052682;28;19924;-56
2023/04/11 09:39:14;;;;;;;;;;;;;;;11.53;63.25;101355.44;5051794;28;19921;-56
2023/04/11 09:41:40;;;;;;;;;;;;;;;11.60;60.72;101351.34;5051207;28;19943;-55
2023/04/11 09:44:05;;;;;;;;;;;;;;;11.58;62.55;101342.69;5054120;28;19916;-56
2023/04/11 09:46:31;;;;;;;;;;;;;;;11.60;61.04;101356.50;5052413;28;19923;-56
2023/04/11 09:48:56;;;;;;;;;;;;;;;11.81;62.33;101341.75;5035826;28;19924;-56
2023/04/11 09:51:22;;;;;;;;;;;;;;;11.91;60.39;101349.75;5048348;28;19916;-56
2023/04/11 09:53:47;;;;;;;;;;;;;;;12.15;62.02;101352.19;5052747;28;19921;-55
2023/04/11 09:56:13;;;;;;;;;;;;;;;12.37;61.16;101349.38;5050855;28;19920;-56
2023/04/11 09:58:38;;;;;;;;;;;;;;;12.49;60.44;101352.31;5050865;28;19973;-56
2023/04/11 10:01:09;;;;;;;;;;;;;;;12.44;60.72;101361.66;5052131;28;20023;-56
2023/04/11 10:03:38;;;;;;;;;;;;;;;12.29;59.97;101364.66;5050638;28;19917;-58
2023/04/11 10:06:11;;;;;;;;;;;;;;;12.02;60.36;101357.00;5052101;28;19935;-56
2023/04/11 10:08:37;;;;;;;;;;;;;;;11.84;62.11;101365.88;5055002;28;19998;-56
2023/04/11 10:11:03;;;;;;;;;;;;;;;11.92;62.11;101360.09;5054188;28;20390;-57
2023/04/11 10:13:31;;;;;;;;;;;;;;;11.74;60.89;101362.97;5055197;28;19912;-57
2023/04/11 10:16:10;;;;;;;;;;;;;;;11.58;62.24;101367.56;5052337;28;20029;-57
2023/04/11 10:18:35;;;;;;;;;;;;;;;11.33;63.83;101365.91;5050528;28;20330;-57
2023/04/11 10:21:01;;;;;;;;;;;;;;;11.42;64.01;101373.94;5055001;28;19927;-57
2023/04/11 10:23:26;;;;;;;;;;;;;;;11.42;64.84;101373.94;5054418;28;20429;-56
2023/04/11 10:25:58;;;;;;;;;;;;;;;11.40;63.41;101373.88;5054615;28;20008;-55
2023/04/11 10:28:31;;;;;;;;;;;;;;;11.35;63.64;101372.00;5055048;28;19941;-53
2023/04/11 10:31:00;;;;;;;;;;;;;;;11.16;62.95;101366.25;5054144;28;20322;-56
2023/04/11 10:33:26;;;;;;;;;;;;;;;11.16;62.92;101367.91;5050319;28;19969;-57
2023/04/11 10:35:56;;;;;;;;;;;;;;;11.31;61.38;101363.28;5049845;28;19916;-56
2023/04/11 10:38:42;;;;;;;;;;;;;;;11.53;60.34;101368.31;5049798;28;19923;-57
2023/04/11 10:41:33;;;;;;;;;;;;;;;11.59;60.57;101365.06;5051069;28;19920;-57
2023/04/11 10:44:13;;;;;;;;;;;;;;;11.76;59.81;101363.88;5047356;28;19916;-56
2023/04/11 10:46:45;;;;;;;;;;;;;;;12.02;59.73;101356.13;5048053;28;19921;-56
2023/04/11 10:49:11;;;;;;;;;;;;;;;12.19;58.86;101359.16;5055211;28;19961;-56
2023/04/11 10:51:36;;;;;;;;;;;;;;;12.07;59.53;101358.00;5051410;28;19924;-56
2023/04/11 10:54:02;;;;;;;;;;;;;;;12.06;55.28;101361.38;5051820;28;19927;-57
2023/04/11 10:56:45;;;;;;;;;;;;;;;12.04;56.64;101359.59;5052167;28;20387;-57
2023/04/11 10:59:29;;;;;;;;;;;;;;;12.09;58.47;101352.88;5049505;28;19921;-57
2023/04/11 11:01:54;;;;;;;;;;;;;;;12.26;58.45;101362.00;5050637;28;19924;-58
2023/04/11 11:04:20;;;;;;;;;;;;;;;12.49;55.91;101361.75;5052172;28;20000;-57
2023/04/11 11:06:45;;;;;;;;;;;;;;;12.59;51.54;101356.91;5046350;28;19932;-56
2023/04/11 11:09:22;;;;;;;;;;;;;;;12.69;52.91;101357.19;5052242;28;19928;-56
2023/04/11 11:12:03;;;;;;;;;;;;;;;12.85;50.48;101364.47;5049190;28;19935;-56
2023/04/11 11:14:31;;;;;;;;;;;;;;;12.94;53.23;101358.69;5052993;28;19921;-56
2023/04/11 11:16:57;;;;;;;;;;;;;;;13.17;51.84;101357.59;5034538;28;19932;-56
2023/04/11 11:19:22;;;;;;;;;;;;;;;13.29;52.43;101363.09;5029760;28;20287;-56
2023/04/11 11:21:49;;;;;;;;;;;;;;;13.43;52.80;101362.56;5032797;28;19967;-57
2023/04/11 11:24:22;;;;;;;;;;;;;;;13.33;51.51;101359.72;5033141;28;20434;-56
2023/04/11 11:26:49;;;;;;;;;;;;;;;13.13;49.58;101356.63;5030792;28;19913;-56
2023/04/11 11:29:14;;;;;;;;;;;;;;;12.91;50.65;101377.53;5029871;28;19925;-57
2023/04/11 11:31:41;;;;;;;;;;;;;;;12.96;49.76;101372.50;5031388;28;20267;-54
2023/04/11 11:34:09;;;;;;;;;;;;;;;13.01;49.34;101366.63;5034023;28;20395;-55
2023/04/11 11:36:40;;;;;;;;;;;;;;;13.00;49.62;101364.91;5032024;28;19916;-57
2023/04/11 11:39:06;;;;;;;;;;;;;;;13.11;47.72;101371.22;5030948;28;19927;-56
2023/04/11 11:41:33;;;;;;;;;;;;;;;13.01;49.44;101371.78;5029081;28;19975;-54
2023/04/11 11:44:00;;;;;;;;;;;;;;;13.04;49.28;101373.56;5030276;28;20366;-56
2023/04/11 11:46:28;;;;;;;;;;;;;;;13.22;47.17;101375.78;5034951;28;19928;-56
2023/04/11 11:48:58;;;;;;;;;;;;;;;13.49;46.52;101375.63;5023888;28;19966;-56
2023/04/11 11:51:23;;;;;;;;;;;;;;;13.66;46.06;101376.91;5029502;28;20756;-56
2023/04/11 11:54:04;;;;;;;;;;;;;;;13.68;48.43;101372.63;5029649;28;19956;-56
2023/04/11 11:56:30;;;;;;;;;;;;;;;13.55;48.48;101365.44;5027540;28;19917;-57
2023/04/11 11:58:55;;;;;;;;;;;;;;;13.59;46.42;101374.97;5032359;28;20542;-56
2023/04/11 12:01:21;;;;;;;;;;;;;;;13.38;46.99;101373.63;5031213;28;20435;-57
2023/04/11 12:03:49;;;;;;;;;;;;;;;13.24;46.93;101382.75;5028897;28;19920;-56
2023/04/11 12:06:16;;;;;;;;;;;;;;;13.22;47.76;101379.25;5033090;28;19954;-56
2023/04/11 12:08:43;;;;;;;;;;;;;;;13.34;49.29;101386.44;5035396;28;19924;-57
2023/04/11 12:11:12;;;;;;;;;;;;;;;13.61;47.17;101374.19;5029942;28;20012;-56
2023/04/11 12:13:37;;;;;;;;;;;;;;;13.70;45.50;101381.28;5029849;28;19991;-57
2023/04/11 12:16:03;;;;;;;;;;;;;;;13.54;47.15;101374.03;5036158;28;20015;-58
2023/04/11 12:18:29;;;;;;;;;;;;;;;13.51;48.48;101371.34;5050292;28;19929;-57
2023/04/11 12:20:55;;;;;;;;;;;;;;;13.75;48.77;101364.19;5043708;28;20563;-57
2023/04/11 12:23:20;;;;;;;;;;;;;;;13.97;48.78;101370.72;5047849;28;20000;-58
2023/04/11 12:25:45;;;;;;;;;;;;;;;14.10;46.40;101366.69;5037124;28;19916;-56
2023/04/11 12:28:11;;;;;;;;;;;;;;;13.98;44.16;101372.47;5048885;28;20049;-56
2023/04/11 12:30:36;;;;;;;;;;;;;;;13.64;46.33;101373.38;5049187;28;19927;-57
2023/04/11 12:33:02;;;;;;;;;;;;;;;13.67;45.65;101383.81;5048950;28;19954;-57
2023/04/11 12:35:27;;;;;;;;;;;;;;;13.83;45.00;101375.59;5050506;28;20007;-56
2023/04/11 12:37:53;;;;;;;;;;;;;;;13.89;45.30;101361.91;5047582;28;19912;-57